Doniphan, Arkansas
Current Conditions -  °F | °C
As of 9:56 PM on Saturday 24 Jan 2015 (Local Time) from KSRC Reporting Station
Clear Clear  
Wind Chill:   Ceiling: Unl
Heat Index:   Visibility: 10mi
Dew Point: -2°   Wind: 3mph
Humidity: 73%   Direction: 230°SW
Pressure: 29.92"   Gusts: NA
Location:  35.2662°N, 91.8491°W
Report Text: KSRC 250356Z AUTO 23003KT 10SM CLR 03/M02 A2992 RMK AO2 SLP139 T00281017 TSNO
Loading
Personal Weather Stations






























Interactive Weather Map New forecast layout! Learn more

10-Day Weather Forecast

Advertisements
Track Severe Weather on mobile